sensor_id;sensor_type;location;lat;lon;timestamp;temperature;humidity
3919;DHT22;1974;48.670;8.994;2023-09-18T00:02:06;20.60;99.90
3919;DHT22;1974;48.670;8.994;2023-09-18T00:04:34;20.60;99.90
3919;DHT22;1974;48.670;8.994;2023-09-18T00:07:01;20.70;99.90
3919;DHT22;1974;48.670;8.994;2023-09-18T00:09:28;20.60;99.90
3919;DHT22;1974;48.670;8.994;2023-09-18T00:11:55;20.60;99.90
3919;DHT22;1974;48.670;8.994;2023-09-18T00:14:21;20.50;99.90
3919;DHT22;1974;48.670;8.994;2023-09-18T00:16:49;20.50;99.90
3919;DHT22;1974;48.670;8.994;2023-09-18T00:19:17;20.50;99.90
3919;DHT22;1974;48.670;8.994;2023-09-18T00:21:45;20.40;99.90
3919;DHT22;1974;48.670;8.994;2023-09-18T00:24:12;20.40;99.90
3919;DHT22;1974;48.670;8.994;2023-09-18T00:26:38;20.30;99.90
3919;DHT22;1974;48.670;8.994;2023-09-18T00:29:05;20.30;99.90
3919;DHT22;1974;48.670;8.994;2023-09-18T00:31:32;20.30;99.90
3919;DHT22;1974;48.670;8.994;2023-09-18T00:33:58;20.20;99.90
3919;DHT22;1974;48.670;8.994;2023-09-18T00:36:25;20.20;99.90
3919;DHT22;1974;48.670;8.994;2023-09-18T00:38:53;20.20;99.90
3919;DHT22;1974;48.670;8.994;2023-09-18T00:41:20;20.10;99.90
3919;DHT22;1974;48.670;8.994;2023-09-18T00:43:47;20.30;99.90
3919;DHT22;1974;48.670;8.994;2023-09-18T00:46:13;20.20;99.90
3919;DHT22;1974;48.670;8.994;2023-09-18T00:48:40;20.30;99.90
3919;DHT22;1974;48.670;8.994;2023-09-18T00:51:08;20.30;99.90
3919;DHT22;1974;48.670;8.994;2023-09-18T00:53:37;20.30;99.90
3919;DHT22;1974;48.670;8.994;2023-09-18T00:56:06;20.30;99.90
3919;DHT22;1974;48.670;8.994;2023-09-18T00:58:33;20.30;99.90
3919;DHT22;1974;48.670;8.994;2023-09-18T01:01:00;20.30;99.90
3919;DHT22;1974;48.670;8.994;2023-09-18T01:03:27;20.30;99.90
3919;DHT22;1974;48.670;8.994;2023-09-18T01:05:54;20.30;99.90
3919;DHT22;1974;48.670;8.994;2023-09-18T01:08:21;20.30;99.90
3919;DHT22;1974;48.670;8.994;2023-09-18T01:10:53;20.30;99.90
3919;DHT22;1974;48.670;8.994;2023-09-18T01:13:27;20.30;99.90
3919;DHT22;1974;48.670;8.994;2023-09-18T01:16:00;20.40;99.90
3919;DHT22;1974;48.670;8.994;2023-09-18T01:18:29;20.50;99.90
3919;DHT22;1974;48.670;8.994;2023-09-18T01:20:56;20.50;99.90
3919;DHT22;1974;48.670;8.994;2023-09-18T01:23:24;20.50;99.90
3919;DHT22;1974;48.670;8.994;2023-09-18T01:25:51;20.50;99.90
3919;DHT22;1974;48.670;8.994;2023-09-18T01:28:17;20.50;99.90
3919;DHT22;1974;48.670;8.994;2023-09-18T01:30:44;20.50;99.90
3919;DHT22;1974;48.670;8.994;2023-09-18T01:33:11;20.50;99.90
3919;DHT22;1974;48.670;8.994;2023-09-18T01:35:39;20.60;99.90
3919;DHT22;1974;48.670;8.994;2023-09-18T01:38:07;20.50;99.90
3919;DHT22;1974;48.670;8.994;2023-09-18T01:40:38;20.40;99.90
3919;DHT22;1974;48.670;8.994;2023-09-18T01:43:04;20.60;99.90
3919;DHT22;1974;48.670;8.994;2023-09-18T01:45:32;20.60;99.90
3919;DHT22;1974;48.670;8.994;2023-09-18T01:47:59;20.60;99.90
3919;DHT22;1974;48.670;8.994;2023-09-18T01:50:26;20.50;99.90
3919;DHT22;1974;48.670;8.994;2023-09-18T01:52:52;20.40;99.90
3919;DHT22;1974;48.670;8.994;2023-09-18T01:55:19;20.10;99.90
3919;DHT22;1974;48.670;8.994;2023-09-18T01:57:47;19.60;99.90
3919;DHT22;1974;48.670;8.994;2023-09-18T02:00:15;19.10;99.90
3919;DHT22;1974;48.670;8.994;2023-09-18T02:02:42;18.80;99.90
3919;DHT22;1974;48.670;8.994;2023-09-18T02:05:08;18.60;99.90
3919;DHT22;1974;48.670;8.994;2023-09-18T02:07:35;18.50;99.90
3919;DHT22;1974;48.670;8.994;2023-09-18T02:10:02;18.40;99.90
3919;DHT22;1974;48.670;8.994;2023-09-18T02:12:29;18.20;99.90
3919;DHT22;1974;48.670;8.994;2023-09-18T02:14:57;18.10;99.90
3919;DHT22;1974;48.670;8.994;2023-09-18T02:17:26;18.10;99.90
3919;DHT22;1974;48.670;8.994;2023-09-18T02:19:53;18.10;99.90
3919;DHT22;1974;48.670;8.994;2023-09-18T02:22:20;18.10;99.90
3919;DHT22;1974;48.670;8.994;2023-09-18T02:24:46;18.00;99.90
3919;DHT22;1974;48.670;8.994;2023-09-18T02:27:13;18.00;99.90
3919;DHT22;1974;48.670;8.994;2023-09-18T02:29:40;18.00;99.90
3919;DHT22;1974;48.670;8.994;2023-09-18T02:32:08;18.00;99.90
3919;DHT22;1974;48.670;8.994;2023-09-18T02:34:35;18.00;99.90
3919;DHT22;1974;48.670;8.994;2023-09-18T02:37:02;18.00;99.90
3919;DHT22;1974;48.670;8.994;2023-09-18T02:39:29;17.80;99.90
3919;DHT22;1974;48.670;8.994;2023-09-18T02:41:55;17.90;99.90
3919;DHT22;1974;48.670;8.994;2023-09-18T02:44:22;17.80;99.90
3919;DHT22;1974;48.670;8.994;2023-09-18T02:46:49;17.80;99.90
3919;DHT22;1974;48.670;8.994;2023-09-18T02:49:17;17.80;99.90
3919;DHT22;1974;48.670;8.994;2023-09-18T02:51:43;17.90;99.90
3919;DHT22;1974;48.670;8.994;2023-09-18T02:54:10;18.00;99.90
3919;DHT22;1974;48.670;8.994;2023-09-18T02:56:37;18.10;99.90
3919;DHT22;1974;48.670;8.994;2023-09-18T02:59:04;18.20;99.90
3919;DHT22;1974;48.670;8.994;2023-09-18T03:01:30;18.20;99.90
3919;DHT22;1974;48.670;8.994;2023-09-18T03:03:57;18.20;99.90
3919;DHT22;1974;48.670;8.994;2023-09-18T03:06:25;18.30;99.90
3919;DHT22;1974;48.670;8.994;2023-09-18T03:08:52;18.30;99.90
3919;DHT22;1974;48.670;8.994;2023-09-18T03:11:19;18.40;99.90
3919;DHT22;1974;48.670;8.994;2023-09-18T03:13:46;18.40;99.90
3919;DHT22;1974;48.670;8.994;2023-09-18T03:16:13;18.50;99.90
3919;DHT22;1974;48.670;8.994;2023-09-18T03:18:40;18.50;99.90
3919;DHT22;1974;48.670;8.994;2023-09-18T03:21:07;18.50;99.90
3919;DHT22;1974;48.670;8.994;2023-09-18T03:23:35;18.50;99.90
3919;DHT22;1974;48.670;8.994;2023-09-18T03:26:02;18.70;99.90
3919;DHT22;1974;48.670;8.994;2023-09-18T03:28:29;18.60;99.90
3919;DHT22;1974;48.670;8.994;2023-09-18T03:30:56;18.60;99.90
3919;DHT22;1974;48.670;8.994;2023-09-18T03:33:24;18.60;99.90
3919;DHT22;1974;48.670;8.994;2023-09-18T03:35:51;18.70;99.90
3919;DHT22;1974;48.670;8.994;2023-09-18T03:38:20;18.70;99.90
3919;DHT22;1974;48.670;8.994;2023-09-18T03:40:48;18.70;99.90
3919;DHT22;1974;48.670;8.994;2023-09-18T03:43:15;18.70;99.90
3919;DHT22;1974;48.670;8.994;2023-09-18T03:45:42;18.70;99.90
3919;DHT22;1974;48.670;8.994;2023-09-18T03:48:09;18.60;99.90
3919;DHT22;1974;48.670;8.994;2023-09-18T03:50:36;18.70;99.90
3919;DHT22;1974;48.670;8.994;2023-09-18T03:53:03;18.50;99.90
3919;DHT22;1974;48.670;8.994;2023-09-18T03:55:29;18.70;99.90
3919;DHT22;1974;48.670;8.994;2023-09-18T03:57:57;18.70;99.90
3919;DHT22;1974;48.670;8.994;2023-09-18T04:00:24;18.80;99.90
3919;DHT22;1974;48.670;8.994;2023-09-18T04:02:51;18.80;99.90
3919;DHT22;1974;48.670;8.994;2023-09-18T04:05:18;18.80;99.90
3919;DHT22;1974;48.670;8.994;2023-09-18T04:07:45;18.80;99.90
3919;DHT22;1974;48.670;8.994;2023-09-18T04:10:12;18.80;99.90
3919;DHT22;1974;48.670;8.994;2023-09-18T04:12:44;18.80;99.90
3919;DHT22;1974;48.670;8.994;2023-09-18T04:15:14;18.90;99.90
3919;DHT22;1974;48.670;8.994;2023-09-18T04:17:42;19.00;99.90
3919;DHT22;1974;48.670;8.994;2023-09-18T04:20:09;18.90;99.90
3919;DHT22;1974;48.670;8.994;2023-09-18T04:22:41;19.00;99.90
3919;DHT22;1974;48.670;8.994;2023-09-18T04:25:08;19.00;99.90
3919;DHT22;1974;48.670;8.994;2023-09-18T04:27:35;19.10;99.90
3919;DHT22;1974;48.670;8.994;2023-09-18T04:30:02;19.10;99.90
3919;DHT22;1974;48.670;8.994;2023-09-18T04:32:31;19.10;99.90
3919;DHT22;1974;48.670;8.994;2023-09-18T04:34:58;19.10;99.90
3919;DHT22;1974;48.670;8.994;2023-09-18T04:37:24;19.10;99.90
3919;DHT22;1974;48.670;8.994;2023-09-18T04:39:51;19.10;99.90
3919;DHT22;1974;48.670;8.994;2023-09-18T04:42:18;19.10;99.90
3919;DHT22;1974;48.670;8.994;2023-09-18T04:44:45;19.10;99.90
3919;DHT22;1974;48.670;8.994;2023-09-18T04:47:11;19.10;99.90
3919;DHT22;1974;48.670;8.994;2023-09-18T04:49:39;19.10;99.90
3919;DHT22;1974;48.670;8.994;2023-09-18T04:52:06;19.10;99.90
3919;DHT22;1974;48.670;8.994;2023-09-18T04:54:33;19.10;99.90
3919;DHT22;1974;48.670;8.994;2023-09-18T04:56:59;19.10;99.90
3919;DHT22;1974;48.670;8.994;2023-09-18T04:59:26;19.10;99.90
3919;DHT22;1974;48.670;8.994;2023-09-18T05:01:53;19.10;99.90
3919;DHT22;1974;48.670;8.994;2023-09-18T05:04:20;19.00;99.90
3919;DHT22;1974;48.670;8.994;2023-09-18T05:06:48;19.00;99.90
3919;DHT22;1974;48.670;8.994;2023-09-18T05:09:14;19.00;99.90
3919;DHT22;1974;48.670;8.994;2023-09-18T05:11:41;19.00;99.90
3919;DHT22;1974;48.670;8.994;2023-09-18T05:14:08;19.00;99.90
3919;DHT22;1974;48.670;8.994;2023-09-18T05:16:35;19.00;99.90
3919;DHT22;1974;48.670;8.994;2023-09-18T05:19:02;19.00;99.90
3919;DHT22;1974;48.670;8.994;2023-09-18T05:21:29;19.00;99.90
3919;DHT22;1974;48.670;8.994;2023-09-18T05:23:57;19.00;99.90
3919;DHT22;1974;48.670;8.994;2023-09-18T05:26:24;19.00;99.90
3919;DHT22;1974;48.670;8.994;2023-09-18T05:28:52;19.00;99.90
3919;DHT22;1974;48.670;8.994;2023-09-18T05:31:20;19.00;99.90
3919;DHT22;1974;48.670;8.994;2023-09-18T05:33:47;19.00;99.90
3919;DHT22;1974;48.670;8.994;2023-09-18T05:36:14;19.00;99.90
3919;DHT22;1974;48.670;8.994;2023-09-18T05:38:41;18.90;99.90
3919;DHT22;1974;48.670;8.994;2023-09-18T05:41:10;19.00;99.90
3919;DHT22;1974;48.670;8.994;2023-09-18T05:43:36;19.00;99.90
3919;DHT22;1974;48.670;8.994;2023-09-18T05:46:03;19.00;99.90
3919;DHT22;1974;48.670;8.994;2023-09-18T05:48:30;19.10;99.90
3919;DHT22;1974;48.670;8.994;2023-09-18T05:50:56;19.00;99.90
3919;DHT22;1974;48.670;8.994;2023-09-18T05:53:23;19.00;99.90
3919;DHT22;1974;48.670;8.994;2023-09-18T05:55:50;19.00;99.90
3919;DHT22;1974;48.670;8.994;2023-09-18T05:58:18;18.90;99.90
3919;DHT22;1974;48.670;8.994;2023-09-18T06:00:50;18.80;99.90
3919;DHT22;1974;48.670;8.994;2023-09-18T06:03:16;18.70;99.90
3919;DHT22;1974;48.670;8.994;2023-09-18T06:05:45;18.70;99.90
3919;DHT22;1974;48.670;8.994;2023-09-18T06:08:12;18.60;99.90
3919;DHT22;1974;48.670;8.994;2023-09-18T06:10:38;18.60;99.90
3919;DHT22;1974;48.670;8.994;2023-09-18T06:13:05;18.50;99.90
3919;DHT22;1974;48.670;8.994;2023-09-18T06:15:33;18.60;99.90
3919;DHT22;1974;48.670;8.994;2023-09-18T06:18:00;18.60;99.90
3919;DHT22;1974;48.670;8.994;2023-09-18T06:20:27;18.60;99.90
3919;DHT22;1974;48.670;8.994;2023-09-18T06:22:54;18.70;99.90
3919;DHT22;1974;48.670;8.994;2023-09-18T06:25:20;18.60;99.90
3919;DHT22;1974;48.670;8.994;2023-09-18T06:27:47;18.60;99.90
3919;DHT22;1974;48.670;8.994;2023-09-18T06:30:14;18.70;99.90
3919;DHT22;1974;48.670;8.994;2023-09-18T06:32:42;18.70;99.90
3919;DHT22;1974;48.670;8.994;2023-09-18T06:35:11;18.70;99.90
3919;DHT22;1974;48.670;8.994;2023-09-18T06:37:38;18.70;99.90
3919;DHT22;1974;48.670;8.994;2023-09-18T06:40:06;18.70;99.90
3919;DHT22;1974;48.670;8.994;2023-09-18T06:42:33;18.60;99.90
3919;DHT22;1974;48.670;8.994;2023-09-18T06:45:00;18.60;99.90
3919;DHT22;1974;48.670;8.994;2023-09-18T06:47:27;18.50;99.90
3919;DHT22;1974;48.670;8.994;2023-09-18T06:49:55;18.50;99.90
3919;DHT22;1974;48.670;8.994;2023-09-18T06:52:22;18.50;99.90
3919;DHT22;1974;48.670;8.994;2023-09-18T06:54:48;18.70;99.90
3919;DHT22;1974;48.670;8.994;2023-09-18T06:57:15;18.60;99.90
3919;DHT22;1974;48.670;8.994;2023-09-18T06:59:42;18.80;99.90
3919;DHT22;1974;48.670;8.994;2023-09-18T07:02:10;18.80;99.90
3919;DHT22;1974;48.670;8.994;2023-09-18T07:04:40;18.90;99.90
3919;DHT22;1974;48.670;8.994;2023-09-18T07:07:12;18.90;99.90
3919;DHT22;1974;48.670;8.994;2023-09-18T07:09:39;18.90;99.90
3919;DHT22;1974;48.670;8.994;2023-09-18T07:12:07;18.90;99.90
3919;DHT22;1974;48.670;8.994;2023-09-18T07:14:34;18.90;99.90
3919;DHT22;1974;48.670;8.994;2023-09-18T07:17:01;18.80;99.90
3919;DHT22;1974;48.670;8.994;2023-09-18T07:19:27;18.80;99.90
3919;DHT22;1974;48.670;8.994;2023-09-18T07:21:54;18.80;99.90
3919;DHT22;1974;48.670;8.994;2023-09-18T07:24:22;18.80;99.90
3919;DHT22;1974;48.670;8.994;2023-09-18T07:26:49;18.80;99.90
3919;DHT22;1974;48.670;8.994;2023-09-18T07:29:16;18.90;99.90
3919;DHT22;1974;48.670;8.994;2023-09-18T07:31:43;18.90;99.90
3919;DHT22;1974;48.670;8.994;2023-09-18T07:34:11;19.00;99.90
3919;DHT22;1974;48.670;8.994;2023-09-18T07:36:37;18.90;99.90
3919;DHT22;1974;48.670;8.994;2023-09-18T07:39:04;18.90;99.90
3919;DHT22;1974;48.670;8.994;2023-09-18T07:41:32;18.80;99.90
3919;DHT22;1974;48.670;8.994;2023-09-18T07:43:59;18.80;99.90
3919;DHT22;1974;48.670;8.994;2023-09-18T07:46:26;18.80;99.90
3919;DHT22;1974;48.670;8.994;2023-09-18T07:48:52;18.70;99.90
3919;DHT22;1974;48.670;8.994;2023-09-18T07:51:19;18.70;99.90
3919;DHT22;1974;48.670;8.994;2023-09-18T07:53:46;18.70;99.90
3919;DHT22;1974;48.670;8.994;2023-09-18T07:56:13;18.80;99.90
3919;DHT22;1974;48.670;8.994;2023-09-18T07:58:41;18.80;99.90
3919;DHT22;1974;48.670;8.994;2023-09-18T08:01:08;18.80;99.90
3919;DHT22;1974;48.670;8.994;2023-09-18T08:03:35;18.80;99.90
3919;DHT22;1974;48.670;8.994;2023-09-18T08:06:02;18.90;99.90
3919;DHT22;1974;48.670;8.994;2023-09-18T08:08:30;18.90;99.90
3919;DHT22;1974;48.670;8.994;2023-09-18T08:11:00;18.90;99.90
3919;DHT22;1974;48.670;8.994;2023-09-18T08:13:27;18.90;99.90
3919;DHT22;1974;48.670;8.994;2023-09-18T08:15:56;19.00;99.90
3919;DHT22;1974;48.670;8.994;2023-09-18T08:18:22;19.00;99.90
3919;DHT22;1974;48.670;8.994;2023-09-18T08:20:52;19.10;99.90
3919;DHT22;1974;48.670;8.994;2023-09-18T08:23:18;19.10;99.90
3919;DHT22;1974;48.670;8.994;2023-09-18T08:25:45;19.10;99.90
3919;DHT22;1974;48.670;8.994;2023-09-18T08:28:12;19.00;99.90
3919;DHT22;1974;48.670;8.994;2023-09-18T08:30:40;18.90;99.90
3919;DHT22;1974;48.670;8.994;2023-09-18T08:33:11;18.80;99.90
3919;DHT22;1974;48.670;8.994;2023-09-18T08:35:38;18.70;99.90
3919;DHT22;1974;48.670;8.994;2023-09-18T08:38:05;18.50;99.90
3919;DHT22;1974;48.670;8.994;2023-09-18T08:40:33;18.30;99.90
3919;DHT22;1974;48.670;8.994;2023-09-18T08:43:01;18.10;99.90
3919;DHT22;1974;48.670;8.994;2023-09-18T08:45:33;18.00;99.90
3919;DHT22;1974;48.670;8.994;2023-09-18T08:48:02;17.90;99.90
3919;DHT22;1974;48.670;8.994;2023-09-18T08:50:30;17.90;99.90
3919;DHT22;1974;48.670;8.994;2023-09-18T08:52:57;17.80;99.90
3919;DHT22;1974;48.670;8.994;2023-09-18T08:55:24;17.60;99.90
3919;DHT22;1974;48.670;8.994;2023-09-18T08:57:53;17.50;99.90
3919;DHT22;1974;48.670;8.994;2023-09-18T09:00:20;17.40;99.90
3919;DHT22;1974;48.670;8.994;2023-09-18T09:02:47;17.30;99.90
3919;DHT22;1974;48.670;8.994;2023-09-18T09:05:17;17.20;99.90
3919;DHT22;1974;48.670;8.994;2023-09-18T09:07:45;17.10;99.90
3919;DHT22;1974;48.670;8.994;2023-09-18T09:10:12;17.10;99.90
3919;DHT22;1974;48.670;8.994;2023-09-18T09:12:52;17.10;99.90
3919;DHT22;1974;48.670;8.994;2023-09-18T09:15:20;17.00;99.90
3919;DHT22;1974;48.670;8.994;2023-09-18T09:17:47;17.10;99.90
3919;DHT22;1974;48.670;8.994;2023-09-18T09:20:16;17.20;99.90
3919;DHT22;1974;48.670;8.994;2023-09-18T09:22:45;17.30;99.90
3919;DHT22;1974;48.670;8.994;2023-09-18T09:25:22;17.30;99.90
3919;DHT22;1974;48.670;8.994;2023-09-18T09:27:51;17.30;99.90
3919;DHT22;1974;48.670;8.994;2023-09-18T09:30:19;17.30;99.90
3919;DHT22;1974;48.670;8.994;2023-09-18T09:32:48;17.70;99.90
3919;DHT22;1974;48.670;8.994;2023-09-18T09:35:20;17.50;99.90
3919;DHT22;1974;48.670;8.994;2023-09-18T09:37:49;17.50;99.90
3919;DHT22;1974;48.670;8.994;2023-09-18T09:40:19;17.50;99.90
3919;DHT22;1974;48.670;8.994;2023-09-18T09:42:46;17.40;99.90
3919;DHT22;1974;48.670;8.994;2023-09-18T09:45:15;17.40;99.90
3919;DHT22;1974;48.670;8.994;2023-09-18T09:47:42;17.40;99.90
3919;DHT22;1974;48.670;8.994;2023-09-18T09:50:11;17.30;99.90
3919;DHT22;1974;48.670;8.994;2023-09-18T09:52:43;17.30;99.90
3919;DHT22;1974;48.670;8.994;2023-09-18T09:55:23;17.40;99.90
3919;DHT22;1974;48.670;8.994;2023-09-18T09:57:52;17.40;99.90
3919;DHT22;1974;48.670;8.994;2023-09-18T10:00:19;17.50;99.90
3919;DHT22;1974;48.670;8.994;2023-09-18T10:02:56;17.50;99.90
3919;DHT22;1974;48.670;8.994;2023-09-18T10:05:26;17.50;99.90
3919;DHT22;1974;48.670;8.994;2023-09-18T10:07:54;17.50;99.90
3919;DHT22;1974;48.670;8.994;2023-09-18T10:10:30;17.50;99.90
3919;DHT22;1974;48.670;8.994;2023-09-18T10:12:58;17.50;99.90
3919;DHT22;1974;48.670;8.994;2023-09-18T10:15:27;17.40;99.90
3919;DHT22;1974;48.670;8.994;2023-09-18T10:17:56;17.40;99.90
3919;DHT22;1974;48.670;8.994;2023-09-18T10:20:26;17.30;99.90
3919;DHT22;1974;48.670;8.994;2023-09-18T10:22:57;17.40;99.90
3919;DHT22;1974;48.670;8.994;2023-09-18T10:25:29;17.40;99.90
3919;DHT22;1974;48.670;8.994;2023-09-18T10:27:58;17.40;99.90
3919;DHT22;1974;48.670;8.994;2023-09-18T10:30:29;17.40;99.90
3919;DHT22;1974;48.670;8.994;2023-09-18T10:32:56;17.40;99.90
3919;DHT22;1974;48.670;8.994;2023-09-18T10:35:25;17.40;99.90
3919;DHT22;1974;48.670;8.994;2023-09-18T10:37:54;17.40;99.90
3919;DHT22;1974;48.670;8.994;2023-09-18T10:40:21;17.40;99.90
3919;DHT22;1974;48.670;8.994;2023-09-18T10:42:50;17.40;99.90
3919;DHT22;1974;48.670;8.994;2023-09-18T10:45:18;17.50;99.90
3919;DHT22;1974;48.670;8.994;2023-09-18T10:47:46;17.50;99.90
3919;DHT22;1974;48.670;8.994;2023-09-18T10:50:23;17.50;99.90
3919;DHT22;1974;48.670;8.994;2023-09-18T10:52:50;17.50;99.90
3919;DHT22;1974;48.670;8.994;2023-09-18T10:55:17;17.50;99.90
3919;DHT22;1974;48.670;8.994;2023-09-18T10:57:52;17.60;99.90
3919;DHT22;1974;48.670;8.994;2023-09-18T11:00:19;17.60;99.90
3919;DHT22;1974;48.670;8.994;2023-09-18T11:02:50;17.50;99.90
3919;DHT22;1974;48.670;8.994;2023-09-18T11:05:28;17.40;99.90
3919;DHT22;1974;48.670;8.994;2023-09-18T11:08:26;17.40;99.90
3919;DHT22;1974;48.670;8.994;2023-09-18T11:10:58;17.40;99.90
3919;DHT22;1974;48.670;8.994;2023-09-18T11:13:33;17.50;99.90
3919;DHT22;1974;48.670;8.994;2023-09-18T11:16:01;17.50;99.90
3919;DHT22;1974;48.670;8.994;2023-09-18T11:18:32;17.40;99.90
3919;DHT22;1974;48.670;8.994;2023-09-18T11:21:09;17.40;99.90
3919;DHT22;1974;48.670;8.994;2023-09-18T11:23:37;17.40;99.90
3919;DHT22;1974;48.670;8.994;2023-09-18T11:26:07;17.40;99.90
3919;DHT22;1974;48.670;8.994;2023-09-18T11:28:36;17.40;99.90
3919;DHT22;1974;48.670;8.994;2023-09-18T11:31:04;17.40;99.90
3919;DHT22;1974;48.670;8.994;2023-09-18T11:33:33;17.40;99.90
3919;DHT22;1974;48.670;8.994;2023-09-18T11:36:06;17.40;99.90
3919;DHT22;1974;48.670;8.994;2023-09-18T11:38:34;17.50;99.90
3919;DHT22;1974;48.670;8.994;2023-09-18T11:41:20;17.50;99.90
3919;DHT22;1974;48.670;8.994;2023-09-18T11:43:48;17.50;99.90
3919;DHT22;1974;48.670;8.994;2023-09-18T11:46:18;17.50;99.90
3919;DHT22;1974;48.670;8.994;2023-09-18T11:48:47;17.50;99.90
3919;DHT22;1974;48.670;8.994;2023-09-18T11:51:21;17.60;99.90
3919;DHT22;1974;48.670;8.994;2023-09-18T11:53:52;17.70;99.90
3919;DHT22;1974;48.670;8.994;2023-09-18T11:56:20;17.70;99.90
3919;DHT22;1974;48.670;8.994;2023-09-18T11:58:49;17.80;99.90
3919;DHT22;1974;48.670;8.994;2023-09-18T12:01:18;17.90;99.90
3919;DHT22;1974;48.670;8.994;2023-09-18T12:03:45;17.80;99.90
3919;DHT22;1974;48.670;8.994;2023-09-18T12:06:12;17.80;99.90
3919;DHT22;1974;48.670;8.994;2023-09-18T12:08:40;18.00;99.90
3919;DHT22;1974;48.670;8.994;2023-09-18T12:11:07;18.00;99.90
3919;DHT22;1974;48.670;8.994;2023-09-18T12:13:34;18.00;99.90
3919;DHT22;1974;48.670;8.994;2023-09-18T12:16:03;18.10;99.90
3919;DHT22;1974;48.670;8.994;2023-09-18T12:18:31;18.20;99.90
3919;DHT22;1974;48.670;8.994;2023-09-18T12:21:02;18.20;99.90
3919;DHT22;1974;48.670;8.994;2023-09-18T12:23:37;18.20;99.90
3919;DHT22;1974;48.670;8.994;2023-09-18T12:26:05;18.10;99.90
3919;DHT22;1974;48.670;8.994;2023-09-18T12:28:33;18.20;99.90
3919;DHT22;1974;48.670;8.994;2023-09-18T12:31:02;18.20;99.90
3919;DHT22;1974;48.670;8.994;2023-09-18T12:33:34;18.40;99.90
3919;DHT22;1974;48.670;8.994;2023-09-18T12:36:02;18.40;99.90
3919;DHT22;1974;48.670;8.994;2023-09-18T12:38:31;18.40;99.90
3919;DHT22;1974;48.670;8.994;2023-09-18T12:40:58;18.50;99.90
3919;DHT22;1974;48.670;8.994;2023-09-18T12:43:33;18.70;99.90
3919;DHT22;1974;48.670;8.994;2023-09-18T12:46:02;18.90;99.90
3919;DHT22;1974;48.670;8.994;2023-09-18T12:48:30;19.00;99.90
3919;DHT22;1974;48.670;8.994;2023-09-18T12:51:02;19.10;99.90
3919;DHT22;1974;48.670;8.994;2023-09-18T12:53:30;19.20;99.90
3919;DHT22;1974;48.670;8.994;2023-09-18T12:56:05;19.30;99.90
3919;DHT22;1974;48.670;8.994;2023-09-18T12:58:32;19.40;99.90
3919;DHT22;1974;48.670;8.994;2023-09-18T13:01:05;19.40;99.90
3919;DHT22;1974;48.670;8.994;2023-09-18T13:03:41;19.40;99.90
3919;DHT22;1974;48.670;8.994;2023-09-18T13:06:09;19.40;99.90
3919;DHT22;1974;48.670;8.994;2023-09-18T13:08:36;19.60;99.90
3919;DHT22;1974;48.670;8.994;2023-09-18T13:11:02;19.70;99.90
3919;DHT22;1974;48.670;8.994;2023-09-18T13:13:30;19.70;99.90
3919;DHT22;1974;48.670;8.994;2023-09-18T13:15:58;19.80;99.90
3919;DHT22;1974;48.670;8.994;2023-09-18T13:18:26;19.80;99.90
3919;DHT22;1974;48.670;8.994;2023-09-18T13:20:54;19.80;99.90
3919;DHT22;1974;48.670;8.994;2023-09-18T13:23:21;19.80;99.90
3919;DHT22;1974;48.670;8.994;2023-09-18T13:25:59;20.40;99.90
3919;DHT22;1974;48.670;8.994;2023-09-18T13:28:26;19.80;99.90
3919;DHT22;1974;48.670;8.994;2023-09-18T13:30:53;19.90;99.90
3919;DHT22;1974;48.670;8.994;2023-09-18T13:33:20;19.90;99.90
3919;DHT22;1974;48.670;8.994;2023-09-18T13:35:49;20.00;99.90
3919;DHT22;1974;48.670;8.994;2023-09-18T13:38:16;20.10;99.90
3919;DHT22;1974;48.670;8.994;2023-09-18T13:40:46;20.00;99.90
3919;DHT22;1974;48.670;8.994;2023-09-18T13:43:13;20.00;99.90
3919;DHT22;1974;48.670;8.994;2023-09-18T13:45:41;20.00;99.90
3919;DHT22;1974;48.670;8.994;2023-09-18T13:48:08;20.00;99.90
3919;DHT22;1974;48.670;8.994;2023-09-18T13:50:36;20.00;99.90
3919;DHT22;1974;48.670;8.994;2023-09-18T13:53:05;20.10;99.90
3919;DHT22;1974;48.670;8.994;2023-09-18T13:55:32;20.20;99.90
3919;DHT22;1974;48.670;8.994;2023-09-18T13:57:59;20.20;99.90
3919;DHT22;1974;48.670;8.994;2023-09-18T14:00:28;20.20;99.90
3919;DHT22;1974;48.670;8.994;2023-09-18T14:02:55;20.20;99.90
3919;DHT22;1974;48.670;8.994;2023-09-18T14:05:22;20.20;99.90
3919;DHT22;1974;48.670;8.994;2023-09-18T14:07:49;20.20;99.90
3919;DHT22;1974;48.670;8.994;2023-09-18T14:10:17;20.60;99.90
3919;DHT22;1974;48.670;8.994;2023-09-18T14:12:46;20.20;99.90
3919;DHT22;1974;48.670;8.994;2023-09-18T14:15:13;20.20;99.90
3919;DHT22;1974;48.670;8.994;2023-09-18T14:17:40;20.10;99.90
3919;DHT22;1974;48.670;8.994;2023-09-18T14:20:07;20.20;99.90
3919;DHT22;1974;48.670;8.994;2023-09-18T14:22:36;20.10;99.90
3919;DHT22;1974;48.670;8.994;2023-09-18T14:25:03;20.10;99.90
3919;DHT22;1974;48.670;8.994;2023-09-18T14:27:32;20.00;99.90
3919;DHT22;1974;48.670;8.994;2023-09-18T14:30:00;20.00;99.90
3919;DHT22;1974;48.670;8.994;2023-09-18T14:32:31;20.00;99.90
3919;DHT22;1974;48.670;8.994;2023-09-18T14:34:58;20.10;99.90
3919;DHT22;1974;48.670;8.994;2023-09-18T14:37:26;20.10;99.90
3919;DHT22;1974;48.670;8.994;2023-09-18T14:39:53;20.10;99.90
3919;DHT22;1974;48.670;8.994;2023-09-18T14:42:20;20.20;99.90
3919;DHT22;1974;48.670;8.994;2023-09-18T14:44:48;20.10;99.90
3919;DHT22;1974;48.670;8.994;2023-09-18T14:47:15;20.20;99.90
3919;DHT22;1974;48.670;8.994;2023-09-18T14:49:42;20.20;99.90
3919;DHT22;1974;48.670;8.994;2023-09-18T14:52:11;20.20;99.90
3919;DHT22;1974;48.670;8.994;2023-09-18T14:54:38;20.20;99.90
3919;DHT22;1974;48.670;8.994;2023-09-18T14:57:05;20.20;99.90
3919;DHT22;1974;48.670;8.994;2023-09-18T14:59:32;20.30;99.90
3919;DHT22;1974;48.670;8.994;2023-09-18T15:02:00;20.30;99.90
3919;DHT22;1974;48.670;8.994;2023-09-18T15:04:28;20.10;99.90
3919;DHT22;1974;48.670;8.994;2023-09-18T15:06:55;20.00;99.90
3919;DHT22;1974;48.670;8.994;2023-09-18T15:09:22;20.00;99.90
3919;DHT22;1974;48.670;8.994;2023-09-18T15:11:48;19.80;99.90
3919;DHT22;1974;48.670;8.994;2023-09-18T15:14:15;19.80;99.90
3919;DHT22;1974;48.670;8.994;2023-09-18T15:16:42;19.80;99.90
3919;DHT22;1974;48.670;8.994;2023-09-18T15:19:10;19.80;99.90
3919;DHT22;1974;48.670;8.994;2023-09-18T15:21:36;19.80;99.90
3919;DHT22;1974;48.670;8.994;2023-09-18T15:24:06;19.90;99.90
3919;DHT22;1974;48.670;8.994;2023-09-18T15:26:33;19.90;99.90
3919;DHT22;1974;48.670;8.994;2023-09-18T15:28:59;20.00;99.90
3919;DHT22;1974;48.670;8.994;2023-09-18T15:31:26;19.90;99.90
3919;DHT22;1974;48.670;8.994;2023-09-18T15:33:53;19.90;99.90
3919;DHT22;1974;48.670;8.994;2023-09-18T15:36:22;19.90;99.90
3919;DHT22;1974;48.670;8.994;2023-09-18T15:38:49;19.90;99.90
3919;DHT22;1974;48.670;8.994;2023-09-18T15:41:16;19.90;99.90
3919;DHT22;1974;48.670;8.994;2023-09-18T15:43:43;19.90;99.90
3919;DHT22;1974;48.670;8.994;2023-09-18T15:46:11;19.90;99.90
3919;DHT22;1974;48.670;8.994;2023-09-18T15:48:39;19.90;99.90
3919;DHT22;1974;48.670;8.994;2023-09-18T15:51:06;19.80;99.90
3919;DHT22;1974;48.670;8.994;2023-09-18T15:53:34;19.80;99.90
3919;DHT22;1974;48.670;8.994;2023-09-18T15:56:01;20.00;99.90
3919;DHT22;1974;48.670;8.994;2023-09-18T15:58:28;20.00;99.90
3919;DHT22;1974;48.670;8.994;2023-09-18T16:00:54;20.00;99.90
3919;DHT22;1974;48.670;8.994;2023-09-18T16:03:23;20.00;99.90
3919;DHT22;1974;48.670;8.994;2023-09-18T16:05:50;20.00;99.90
3919;DHT22;1974;48.670;8.994;2023-09-18T16:08:19;20.00;99.90